Time,TemperatureF,DewpointF,PressureIn,WindDirection,WindDirectionDegrees,WindSpeedMPH,WindSpeedGustMPH,Humidity,HourlyPrecipIn,Conditions,Clouds,dailyrainin,SoftwareType,DateUTC
2013-09-06 00:01:00,58.7,53.6,29.97,ENE,68,0.2,1.8,83,0.00,,,0.00,WUHU216HW,2013-09-06 07:01:00,
2013-09-06 00:07:00,58.5,53.6,29.97,ENE,68,0.4,0.9,84,0.00,,,0.00,WUHU216HW,2013-09-06 07:07:00,
2013-09-06 00:12:00,58.3,53.5,29.97,East,90,0.0,0.7,84,0.00,,,0.00,WUHU216HW,2013-09-06 07:12:00,
2013-09-06 00:17:00,58.3,53.5,29.97,East,90,0.0,0.4,84,0.00,,,0.00,WUHU216HW,2013-09-06 07:17:00,
2013-09-06 00:22:00,58.1,53.3,29.97,East,90,0.0,0.0,84,0.00,,,0.00,WUHU216HW,2013-09-06 07:22:00,
2013-09-06 00:27:00,58.0,53.1,29.97,East,90,0.0,0.0,84,0.00,,,0.00,WUHU216HW,2013-09-06 07:27:00,
2013-09-06 00:32:00,58.0,53.1,29.97,East,90,0.0,0.0,84,0.00,,,0.00,WUHU216HW,2013-09-06 07:32:00,
2013-09-06 00:37:00,57.8,52.9,29.97,ENE,68,0.0,0.0,84,0.00,,,0.00,WUHU216HW,2013-09-06 07:37:00,
2013-09-06 00:42:00,57.6,52.7,29.97,ENE,68,0.0,0.0,84,0.00,,,0.00,WUHU216HW,2013-09-06 07:42:00,
2013-09-06 00:47:00,57.6,52.7,29.97,ENE,68,0.0,0.0,84,0.00,,,0.00,WUHU216HW,2013-09-06 07:47:00,
2013-09-06 00:52:00,57.2,52.7,29.97,ENE,68,0.0,0.0,85,0.00,,,0.00,WUHU216HW,2013-09-06 07:52:00,
2013-09-06 00:57:00,57.2,52.7,29.97,ENE,68,0.0,0.0,85,0.00,,,0.00,WUHU216HW,2013-09-06 07:57:00,
2013-09-06 01:02:00,57.2,52.4,29.97,ENE,68,0.0,0.0,84,0.00,,,0.00,WUHU216HW,2013-09-06 08:02:00,
2013-09-06 01:07:00,57.1,52.2,29.97,ENE,68,0.4,0.4,84,0.00,,,0.00,WUHU216HW,2013-09-06 08:07:00,
2013-09-06 01:12:00,57.1,52.2,29.97,East,90,0.0,0.9,84,0.00,,,0.00,WUHU216HW,2013-09-06 08:12:00,
2013-09-06 01:17:00,56.9,52.0,29.97,East,90,0.0,0.9,84,0.00,,,0.00,WUHU216HW,2013-09-06 08:17:00,
2013-09-06 01:22:00,56.7,51.8,29.97,East,90,0.0,0.4,84,0.00,,,0.00,WUHU216HW,2013-09-06 08:22:00,
2013-09-06 01:27:00,56.5,51.7,29.97,ENE,68,0.0,0.4,84,0.00,,,0.00,WUHU216HW,2013-09-06 08:27:00,
2013-09-06 01:32:00,56.3,51.8,29.97,ENE,68,0.0,0.0,85,0.00,,,0.00,WUHU216HW,2013-09-06 08:32:00,
2013-09-06 01:37:00,56.3,51.8,29.97,ENE,68,1.1,1.1,85,0.00,,,0.00,WUHU216HW,2013-09-06 08:37:00,
2013-09-06 01:42:00,56.2,51.7,29.97,ENE,68,0.4,1.1,85,0.00,,,0.00,WUHU216HW,2013-09-06 08:42:00,
2013-09-06 01:47:00,56.0,51.5,29.96,ENE,68,0.0,0.7,85,0.00,,,0.00,WUHU216HW,2013-09-06 08:47:00,
2013-09-06 01:52:00,55.8,51.3,29.96,ENE,68,0.4,0.4,85,0.00,,,0.00,WUHU216HW,2013-09-06 08:52:00,
2013-09-06 01:57:00,55.8,51.3,29.96,NE,45,0.7,1.8,85,0.00,,,0.00,WUHU216HW,2013-09-06 08:57:00,
2013-09-06 02:02:00,55.6,51.5,29.96,ENE,68,1.1,1.8,86,0.00,,,0.00,WUHU216HW,2013-09-06 09:02:00,
2013-09-06 02:07:00,55.4,51.3,29.96,ENE,68,1.1,1.6,86,0.00,,,0.00,WUHU216HW,2013-09-06 09:07:00,
2013-09-06 02:12:00,55.4,51.3,29.96,NE,45,1.1,1.3,86,0.00,,,0.00,WUHU216HW,2013-09-06 09:12:00,
2013-09-06 02:17:00,55.4,51.3,29.96,NNE,23,0.0,1.3,86,0.00,,,0.00,WUHU216HW,2013-09-06 09:17:00,
2013-09-06 02:22:00,55.4,51.3,29.96,NE,45,1.1,1.1,86,0.00,,,0.00,WUHU216HW,2013-09-06 09:22:00,
2013-09-06 02:27:00,55.4,51.3,29.96,East,90,0.4,1.6,86,0.00,,,0.00,WUHU216HW,2013-09-06 09:27:00,
2013-09-06 02:32:00,55.6,51.5,29.96,East,90,0.0,1.6,86,0.00,,,0.00,WUHU216HW,2013-09-06 09:32:00,
2013-09-06 02:37:00,55.4,51.3,29.96,ESE,113,0.7,0.7,86,0.00,,,0.00,WUHU216HW,2013-09-06 09:37:00,
2013-09-06 02:42:00,55.4,51.3,29.96,ESE,113,0.0,0.7,86,0.00,,,0.00,WUHU216HW,2013-09-06 09:42:00,
2013-09-06 02:47:00,55.4,51.6,29.96,ESE,113,0.4,0.9,87,0.00,,,0.00,WUHU216HW,2013-09-06 09:47:00,
2013-09-06 02:52:00,55.3,51.4,29.96,ESE,113,0.4,0.9,87,0.00,,,0.00,WUHU216HW,2013-09-06 09:52:00,
2013-09-06 02:57:00,55.1,51.2,29.96,ENE,68,0.4,0.4,87,0.00,,,0.00,WUHU216HW,2013-09-06 09:57:00,
2013-09-06 03:02:00,55.1,51.2,29.96,ESE,113,0.0,0.7,87,0.00,,,0.00,WUHU216HW,2013-09-06 10:02:00,
2013-09-06 03:07:00,55.1,51.2,29.95,ESE,113,0.0,0.7,87,0.00,,,0.00,WUHU216HW,2013-09-06 10:07:00,
2013-09-06 03:11:00,55.1,51.8,29.95,ESE,113,0.0,0.0,89,0.00,,,0.00,WUHU216HW,2013-09-06 10:11:00,
2013-09-06 03:16:00,55.1,51.6,29.95,ESE,113,0.0,0.0,88,0.00,,,0.00,WUHU216HW,2013-09-06 10:16:00,
2013-09-06 03:21:00,54.9,51.4,29.95,ESE,113,0.0,0.0,88,0.00,,,0.00,WUHU216HW,2013-09-06 10:21:00,
2013-09-06 03:26:00,54.7,51.2,29.95,East,90,0.0,0.0,88,0.00,,,0.00,WUHU216HW,2013-09-06 10:26:00,
2013-09-06 03:32:00,54.5,51.0,29.95,East,90,0.4,0.7,88,0.00,,,0.00,WUHU216HW,2013-09-06 10:32:00,
2013-09-06 03:36:00,54.5,51.0,29.95,East,90,0.7,0.9,88,0.00,,,0.00,WUHU216HW,2013-09-06 10:36:00,
2013-09-06 03:42:00,54.4,50.9,29.95,East,90,0.4,0.9,88,0.00,,,0.00,WUHU216HW,2013-09-06 10:42:00,
2013-09-06 03:46:00,54.4,50.9,29.95,East,90,0.4,0.9,88,0.00,,,0.00,WUHU216HW,2013-09-06 10:46:00,
2013-09-06 03:51:00,54.2,50.7,29.95,East,90,0.2,0.9,88,0.00,,,0.00,WUHU216HW,2013-09-06 10:51:00,
2013-09-06 03:57:00,54.0,50.5,29.95,East,90,0.4,0.4,88,0.00,,,0.00,WUHU216HW,2013-09-06 10:57:00,
2013-09-06 04:02:00,54.0,50.5,29.94,East,90,1.1,1.1,88,0.00,,,0.00,WUHU216HW,2013-09-06 11:02:00,
2013-09-06 04:07:00,53.8,50.3,29.94,East,90,0.4,1.1,88,0.00,,,0.00,WUHU216HW,2013-09-06 11:07:00,
2013-09-06 04:12:00,53.8,50.7,29.94,ENE,68,0.0,0.9,89,0.00,,,0.00,WUHU216HW,2013-09-06 11:12:00,
2013-09-06 04:17:00,53.8,50.3,29.95,ENE,68,0.0,0.7,88,0.00,,,0.00,WUHU216HW,2013-09-06 11:17:00,
2013-09-06 04:22:00,53.6,50.1,29.95,ENE,68,0.0,0.0,88,0.00,,,0.00,WUHU216HW,2013-09-06 11:22:00,
2013-09-06 04:27:00,53.6,50.1,29.95,East,90,0.0,0.0,88,0.00,,,0.00,WUHU216HW,2013-09-06 11:27:00,
2013-09-06 04:32:00,53.5,50.0,29.95,East,90,0.0,0.0,88,0.00,,,0.00,WUHU216HW,2013-09-06 11:32:00,
2013-09-06 04:37:00,53.3,49.8,29.95,ENE,68,0.4,0.4,88,0.00,,,0.00,WUHU216HW,2013-09-06 11:37:00,
2013-09-06 04:42:00,53.1,49.6,29.95,East,90,0.4,0.4,88,0.00,,,0.00,WUHU216HW,2013-09-06 11:42:00,
2013-09-06 04:47:00,52.9,49.4,29.94,ENE,68,0.4,0.7,88,0.00,,,0.00,WUHU216HW,2013-09-06 11:47:00,
2013-09-06 04:52:00,52.9,49.4,29.95,ENE,68,1.1,1.1,88,0.00,,,0.00,WUHU216HW,2013-09-06 11:52:00,
2013-09-06 04:57:00,52.7,49.6,29.94,ENE,68,1.1,1.1,89,0.00,,,0.00,WUHU216HW,2013-09-06 11:57:00,
2013-09-06 05:02:00,52.7,49.6,29.94,ENE,68,0.4,1.1,89,0.00,,,0.00,WUHU216HW,2013-09-06 12:02:00,
2013-09-06 05:07:00,52.7,49.6,29.94,ENE,68,0.4,1.1,89,0.00,,,0.00,WUHU216HW,2013-09-06 12:07:00,
2013-09-06 05:12:00,52.9,49.8,29.94,ENE,68,0.0,0.4,89,0.00,,,0.00,WUHU216HW,2013-09-06 12:12:00,
2013-09-06 05:17:00,52.7,49.6,29.95,ENE,68,0.0,0.0,89,0.00,,,0.00,WUHU216HW,2013-09-06 12:17:00,
2013-09-06 05:22:00,52.6,49.4,29.95,ENE,68,0.0,0.0,89,0.00,,,0.00,WUHU216HW,2013-09-06 12:22:00,
2013-09-06 05:27:00,52.6,49.4,29.94,East,90,0.0,0.4,89,0.00,,,0.00,WUHU216HW,2013-09-06 12:27:00,
2013-09-06 05:31:00,52.6,49.4,29.94,East,90,0.0,0.4,89,0.00,,,0.00,WUHU216HW,2013-09-06 12:31:00,
2013-09-06 05:36:00,52.2,49.1,29.94,East,90,0.2,0.2,89,0.00,,,0.00,WUHU216HW,2013-09-06 12:36:00,
2013-09-06 05:41:00,52.2,49.1,29.94,East,90,0.4,0.7,89,0.00,,,0.00,WUHU216HW,2013-09-06 12:41:00,
2013-09-06 05:46:00,52.2,49.1,29.94,East,90,0.4,0.7,89,0.00,,,0.00,WUHU216HW,2013-09-06 12:46:00,
2013-09-06 05:51:00,52.0,48.9,29.94,East,90,0.0,0.4,89,0.00,,,0.00,WUHU216HW,2013-09-06 12:51:00,
2013-09-06 05:56:00,52.0,48.9,29.94,East,90,0.0,0.4,89,0.00,,,0.00,WUHU216HW,2013-09-06 12:56:00,
2013-09-06 06:01:00,51.8,48.7,29.94,ENE,68,0.2,0.2,89,0.00,,,0.00,WUHU216HW,2013-09-06 13:01:00,
2013-09-06 06:06:00,51.7,48.5,29.94,ENE,68,0.0,0.2,89,0.00,,,0.00,WUHU216HW,2013-09-06 13:06:00,
2013-09-06 06:12:00,51.5,48.3,29.95,ENE,68,0.0,0.2,89,0.00,,,0.00,WUHU216HW,2013-09-06 13:12:00,
2013-09-06 06:16:00,51.7,48.5,29.95,ENE,68,0.0,0.0,89,0.00,,,0.00,WUHU216HW,2013-09-06 13:16:00,
2013-09-06 06:22:00,51.5,48.3,29.95,ENE,68,0.0,0.0,89,0.00,,,0.00,WUHU216HW,2013-09-06 13:22:00,
2013-09-06 06:27:00,51.5,48.3,29.95,East,90,0.4,0.7,89,0.00,,,0.00,WUHU216HW,2013-09-06 13:27:00,
2013-09-06 06:32:00,51.5,48.3,29.95,ENE,68,0.0,0.7,89,0.00,,,0.00,WUHU216HW,2013-09-06 13:32:00,
2013-09-06 06:36:00,51.3,48.2,29.95,ENE,68,0.0,0.4,89,0.00,,,0.00,WUHU216HW,2013-09-06 13:36:00,
2013-09-06 06:42:00,51.3,48.2,29.95,ENE,68,0.0,0.4,89,0.00,,,0.00,WUHU216HW,2013-09-06 13:42:00,
2013-09-06 06:47:00,51.1,48.0,29.95,ENE,68,0.0,0.4,89,0.00,,,0.00,WUHU216HW,2013-09-06 13:47:00,
2013-09-06 06:52:00,51.1,48.0,29.95,ENE,68,0.0,0.0,89,0.00,,,0.00,WUHU216HW,2013-09-06 13:52:00,
2013-09-06 06:57:00,51.1,48.0,29.95,ENE,68,0.0,0.0,89,0.00,,,0.00,WUHU216HW,2013-09-06 13:57:00,
2013-09-06 07:02:00,51.1,48.0,29.95,ENE,68,0.4,0.4,89,0.00,,,0.00,WUHU216HW,2013-09-06 14:02:00,
2013-09-06 07:07:00,51.1,48.0,29.95,ENE,68,0.2,0.4,89,0.00,,,0.00,WUHU216HW,2013-09-06 14:07:00,
2013-09-06 07:11:00,50.9,47.8,29.95,ENE,68,0.0,0.4,89,0.00,,,0.00,WUHU216HW,2013-09-06 14:11:00,
2013-09-06 07:16:00,50.9,48.1,29.95,ENE,68,0.0,0.0,90,0.00,,,0.00,WUHU216HW,2013-09-06 14:16:00,
2013-09-06 07:21:00,51.1,48.2,29.95,ENE,68,0.9,0.9,90,0.00,,,0.00,WUHU216HW,2013-09-06 14:21:00,
2013-09-06 07:26:00,51.3,48.2,29.96,ENE,68,0.4,0.9,89,0.00,,,0.00,WUHU216HW,2013-09-06 14:26:00,
2013-09-06 07:31:00,51.5,48.3,29.96,ENE,68,0.0,0.4,89,0.00,,,0.00,WUHU216HW,2013-09-06 14:31:00,
2013-09-06 07:36:00,51.8,49.0,29.96,ENE,68,0.7,0.7,90,0.00,,,0.00,WUHU216HW,2013-09-06 14:36:00,
2013-09-06 07:41:00,52.4,49.8,29.96,East,90,0.0,0.9,91,0.00,,,0.00,WUHU216HW,2013-09-06 14:41:00,
2013-09-06 07:46:00,52.7,50.1,29.96,ENE,68,0.0,0.9,91,0.00,,,0.00,WUHU216HW,2013-09-06 14:46:00,
2013-09-06 07:51:00,53.1,50.5,29.96,ENE,68,0.2,0.2,91,0.00,,,0.00,WUHU216HW,2013-09-06 14:51:00,
2013-09-06 07:56:00,53.5,50.9,29.96,NE,45,0.4,0.9,91,0.00,,,0.00,WUHU216HW,2013-09-06 14:56:00,
2013-09-06 08:01:00,54.0,51.4,29.96,NNE,23,0.0,0.9,91,0.00,,,0.00,WUHU216HW,2013-09-06 15:01:00,
2013-09-06 08:06:00,54.5,51.9,29.96,ENE,68,0.9,1.3,91,0.00,,,0.00,WUHU216HW,2013-09-06 15:06:00,
2013-09-06 08:11:00,55.1,52.5,29.96,East,90,0.7,1.3,91,0.00,,,0.00,WUHU216HW,2013-09-06 15:11:00,
2013-09-06 08:16:00,55.8,53.2,29.96,East,90,0.0,0.7,91,0.00,,,0.00,WUHU216HW,2013-09-06 15:16:00,
2013-09-06 08:21:00,56.3,53.7,29.96,East,90,0.0,0.4,91,0.00,,,0.00,WUHU216HW,2013-09-06 15:21:00,
2013-09-06 08:26:00,56.9,54.0,29.96,East,90,1.1,1.1,90,0.00,,,0.00,WUHU216HW,2013-09-06 15:26:00,
2013-09-06 08:31:00,57.6,54.7,29.96,NNE,23,1.6,2.2,90,0.00,,,0.00,WUHU216HW,2013-09-06 15:31:00,
2013-09-06 08:36:00,58.1,54.9,29.97,ENE,68,0.4,2.2,89,0.00,,,0.00,WUHU216HW,2013-09-06 15:36:00,
2013-09-06 08:41:00,58.7,55.8,29.96,South,180,0.2,1.1,90,0.00,,,0.00,WUHU216HW,2013-09-06 15:41:00,
2013-09-06 08:46:00,59.2,56.0,29.96,SE,135,0.7,0.9,89,0.00,,,0.00,WUHU216HW,2013-09-06 15:46:00,
2013-09-06 08:51:00,59.9,56.1,29.96,SE,135,0.4,1.8,87,0.00,,,0.00,WUHU216HW,2013-09-06 15:51:00,
2013-09-06 08:56:00,60.5,56.4,29.96,SSE,158,3.1,3.1,86,0.00,,,0.00,WUHU216HW,2013-09-06 15:56:00,
2013-09-06 09:01:00,61.2,56.3,29.96,SSW,203,0.9,3.1,84,0.00,,,0.00,WUHU216HW,2013-09-06 16:01:00,
2013-09-06 09:06:00,61.7,56.5,29.96,SSW,203,2.0,3.4,83,0.00,,,0.00,WUHU216HW,2013-09-06 16:06:00,
2013-09-06 09:11:00,62.1,56.2,29.97,SE,135,2.9,3.4,81,0.00,,,0.00,WUHU216HW,2013-09-06 16:11:00,
2013-09-06 09:16:00,62.6,56.0,29.96,SSE,158,1.1,3.1,79,0.00,,,0.00,WUHU216HW,2013-09-06 16:16:00,
2013-09-06 09:21:00,63.2,56.5,29.96,SSW,203,2.5,3.4,79,0.00,,,0.00,WUHU216HW,2013-09-06 16:21:00,
2013-09-06 09:26:00,63.7,56.7,29.96,South,180,2.2,3.4,78,0.00,,,0.00,WUHU216HW,2013-09-06 16:26:00,
2013-09-06 09:31:00,64.4,57.1,29.96,SE,135,1.6,3.4,77,0.00,,,0.00,WUHU216HW,2013-09-06 16:31:00,
2013-09-06 09:36:00,65.2,57.4,29.96,SE,135,1.6,3.4,76,0.00,,,0.00,WUHU216HW,2013-09-06 16:36:00,
2013-09-06 09:41:00,65.9,57.3,29.96,South,180,0.4,2.2,74,0.00,,,0.00,WUHU216HW,2013-09-06 16:41:00,
2013-09-06 09:46:00,66.6,57.2,29.96,SSW,203,2.5,2.5,72,0.00,,,0.00,WUHU216HW,2013-09-06 16:46:00,
2013-09-06 09:51:00,67.5,57.0,29.96,SSE,158,1.6,2.5,69,0.00,,,0.00,WUHU216HW,2013-09-06 16:51:00,
2013-09-06 09:56:00,68.2,56.8,29.96,SE,135,1.1,2.7,67,0.00,,,0.00,WUHU216HW,2013-09-06 16:56:00,
2013-09-06 10:01:00,69.1,57.2,29.96,SSW,203,2.0,2.7,66,0.00,,,0.00,WUHU216HW,2013-09-06 17:01:00,
2013-09-06 10:06:00,69.8,57.5,29.96,ESE,113,1.8,2.7,65,0.00,,,0.00,WUHU216HW,2013-09-06 17:06:00,
2013-09-06 10:11:00,70.7,57.1,29.96,SE,135,3.6,3.6,62,0.00,,,0.00,WUHU216HW,2013-09-06 17:11:00,
2013-09-06 10:16:00,71.6,57.5,29.95,ENE,68,0.7,3.6,61,0.00,,,0.00,WUHU216HW,2013-09-06 17:16:00,
2013-09-06 10:21:00,72.2,57.1,29.95,SSW,203,4.3,4.3,59,0.00,,,0.00,WUHU216HW,2013-09-06 17:21:00,
2013-09-06 10:26:00,72.7,56.5,29.95,SSW,203,0.9,4.3,57,0.00,,,0.00,WUHU216HW,2013-09-06 17:26:00,
2013-09-06 10:31:00,73.3,56.0,29.95,SSW,203,2.5,3.4,55,0.00,,,0.00,WUHU216HW,2013-09-06 17:31:00,
2013-09-06 10:36:00,73.8,56.5,29.95,NE,45,2.5,2.9,55,0.00,,,0.00,WUHU216HW,2013-09-06 17:36:00,
2013-09-06 10:41:00,74.5,57.2,29.95,SSE,158,0.4,2.7,55,0.00,,,0.00,WUHU216HW,2013-09-06 17:41:00,
2013-09-06 10:46:00,75.4,57.2,29.95,SW,225,0.2,2.7,53,0.00,,,0.00,WUHU216HW,2013-09-06 17:46:00,
2013-09-06 10:51:00,76.1,58.2,29.95,ESE,113,0.0,2.5,54,0.00,,,0.00,WUHU216HW,2013-09-06 17:51:00,
2013-09-06 10:56:00,76.7,57.2,29.94,ESE,113,0.2,2.7,51,0.00,,,0.00,WUHU216HW,2013-09-06 17:56:00,
2013-09-06 11:01:00,77.2,57.7,29.94,SE,135,2.0,2.7,51,0.00,,,0.00,WUHU216HW,2013-09-06 18:01:00,
2013-09-06 11:06:00,77.6,57.0,29.94,ENE,68,0.4,3.1,49,0.00,,,0.00,WUHU216HW,2013-09-06 18:06:00,
2013-09-06 11:11:00,78.3,58.7,29.94,SW,225,0.7,3.1,51,0.00,,,0.00,WUHU216HW,2013-09-06 18:11:00,
2013-09-06 11:17:00,78.8,56.3,29.94,SSW,203,1.8,3.4,46,0.00,,,0.00,WUHU216HW,2013-09-06 18:17:00,
2013-09-06 11:22:00,78.8,55.0,29.94,SSW,203,1.6,3.4,44,0.00,,,0.00,WUHU216HW,2013-09-06 18:22:00,
2013-09-06 11:27:00,79.2,56.5,29.93,ENE,68,1.8,2.7,46,0.00,,,0.00,WUHU216HW,2013-09-06 18:27:00,
2013-09-06 11:32:00,79.6,56.9,29.93,East,90,1.1,2.9,46,0.00,,,0.00,WUHU216HW,2013-09-06 18:32:00,
2013-09-06 11:37:00,79.9,57.3,29.93,SE,135,0.4,2.9,46,0.00,,,0.00,WUHU216HW,2013-09-06 18:37:00,
2013-09-06 11:41:00,80.5,57.1,29.93,NNE,23,3.8,3.8,45,0.00,,,0.00,WUHU216HW,2013-09-06 18:41:00,
2013-09-06 11:47:00,80.6,57.2,29.93,WSW,248,2.2,3.8,45,0.00,,,0.00,WUHU216HW,2013-09-06 18:47:00,
2013-09-06 11:52:00,80.8,55.5,29.93,SSE,158,2.2,3.6,42,0.00,,,0.00,WUHU216HW,2013-09-06 18:52:00,
2013-09-06 11:56:00,81.4,56.1,29.93,West,270,1.1,3.8,42,0.00,,,0.00,WUHU216HW,2013-09-06 18:56:00,
2013-09-06 12:01:00,81.5,56.8,29.92,WSW,248,2.5,3.8,43,0.00,,,0.00,WUHU216HW,2013-09-06 19:01:00,
2013-09-06 12:06:00,82.1,56.1,29.92,ENE,68,0.4,3.1,41,0.00,,,0.00,WUHU216HW,2013-09-06 19:06:00,
2013-09-06 12:11:00,82.4,57.1,29.92,East,90,4.0,4.0,42,0.00,,,0.00,WUHU216HW,2013-09-06 19:11:00,
2013-09-06 12:16:00,83.0,56.9,29.92,NE,45,1.8,4.0,41,0.00,,,0.00,WUHU216HW,2013-09-06 19:16:00,
2013-09-06 12:21:00,83.5,56.8,29.91,WNW,293,1.1,2.9,40,0.00,,,0.00,WUHU216HW,2013-09-06 19:21:00,
2013-09-06 12:26:00,83.9,57.7,29.91,East,90,1.6,2.9,41,0.00,,,0.00,WUHU216HW,2013-09-06 19:26:00,
2013-09-06 12:31:00,84.2,56.6,29.91,WNW,293,1.3,1.8,39,0.00,,,0.00,WUHU216HW,2013-09-06 19:31:00,
2013-09-06 12:36:00,84.8,55.5,29.91,North,0,2.0,2.5,37,0.00,,,0.00,WUHU216HW,2013-09-06 19:36:00,
2013-09-06 12:41:00,85.1,53.5,29.90,North,0,2.5,4.3,34,0.00,,,0.00,WUHU216HW,2013-09-06 19:41:00,
2013-09-06 12:46:00,85.7,54.0,29.90,NW,315,4.0,4.3,34,0.00,,,0.00,WUHU216HW,2013-09-06 19:46:00,
2013-09-06 12:51:00,86.0,55.1,29.90,NNE,23,1.1,4.0,35,0.00,,,0.00,WUHU216HW,2013-09-06 19:51:00,
2013-09-06 12:56:00,86.0,55.1,29.90,North,0,2.2,2.9,35,0.00,,,0.00,WUHU216HW,2013-09-06 19:56:00,
2013-09-06 13:01:00,86.2,55.3,29.90,ENE,68,2.5,3.6,35,0.00,,,0.00,WUHU216HW,2013-09-06 20:01:00,
2013-09-06 13:06:00,86.4,54.6,29.90,NNE,23,1.3,4.0,34,0.00,,,0.00,WUHU216HW,2013-09-06 20:06:00,
2013-09-06 13:11:00,86.9,54.3,29.90,WSW,248,0.4,4.0,33,0.00,,,0.00,WUHU216HW,2013-09-06 20:11:00,
2013-09-06 13:17:00,87.3,54.5,29.90,NNE,23,2.2,3.6,33,0.00,,,0.00,WUHU216HW,2013-09-06 20:17:00,
2013-09-06 13:22:00,87.5,54.7,29.89,WNW,293,3.8,3.8,33,0.00,,,0.00,WUHU216HW,2013-09-06 20:22:00,
2013-09-06 13:26:00,87.8,53.4,29.89,WSW,248,2.0,3.8,31,0.00,,,0.00,WUHU216HW,2013-09-06 20:26:00,
2013-09-06 13:32:00,87.8,54.2,29.89,West,270,1.6,3.8,32,0.00,,,0.00,WUHU216HW,2013-09-06 20:32:00,
2013-09-06 13:37:00,88.0,53.6,29.88,NNE,23,2.0,3.8,31,0.00,,,0.00,WUHU216HW,2013-09-06 20:37:00,
2013-09-06 13:42:00,88.0,53.6,29.88,ESE,113,1.8,3.8,31,0.00,,,0.00,WUHU216HW,2013-09-06 20:42:00,
2013-09-06 13:47:00,88.2,54.6,29.88,ESE,113,4.3,4.3,32,0.00,,,0.00,WUHU216HW,2013-09-06 20:47:00,
2013-09-06 13:52:00,88.2,52.9,29.88,NW,315,5.4,6.3,30,0.00,,,0.00,WUHU216HW,2013-09-06 20:52:00,
2013-09-06 13:57:00,88.6,52.1,29.88,North,0,2.7,7.4,29,0.00,,,0.00,WUHU216HW,2013-09-06 20:57:00,
2013-09-06 14:02:00,88.9,53.6,29.88,WNW,293,2.9,7.4,30,0.00,,,0.00,WUHU216HW,2013-09-06 21:02:00,
2013-09-06 14:07:00,89.1,53.7,29.87,WNW,293,2.9,4.7,30,0.00,,,0.00,WUHU216HW,2013-09-06 21:07:00,
2013-09-06 14:12:00,89.1,53.7,29.87,SE,135,3.4,4.7,30,0.00,,,0.00,WUHU216HW,2013-09-06 21:12:00,
2013-09-06 14:16:00,89.5,52.9,29.87,WSW,248,4.3,4.3,29,0.00,,,0.00,WUHU216HW,2013-09-06 21:16:00,
2013-09-06 14:22:00,89.8,55.2,29.87,NW,315,1.1,4.3,31,0.00,,,0.00,WUHU216HW,2013-09-06 21:22:00,
2013-09-06 14:27:00,90.0,54.6,29.86,NW,315,1.3,4.0,30,0.00,,,0.00,WUHU216HW,2013-09-06 21:27:00,
2013-09-06 14:32:00,90.2,54.6,29.86,SSW,203,3.8,4.0,30,0.00,,,0.00,WUHU216HW,2013-09-06 21:32:00,
2013-09-06 14:36:00,90.5,53.9,29.86,WNW,293,1.6,6.7,29,0.00,,,0.00,WUHU216HW,2013-09-06 21:36:00,
2013-09-06 14:41:00,90.7,55.2,29.86,NW,315,1.1,6.7,30,0.00,,,0.00,WUHU216HW,2013-09-06 21:41:00,
2013-09-06 14:46:00,90.9,55.4,29.85,WNW,293,4.0,4.9,30,0.00,,,0.00,WUHU216HW,2013-09-06 21:46:00,
2013-09-06 14:51:00,91.1,54.4,29.85,WNW,293,2.7,5.1,29,0.00,,,0.00,WUHU216HW,2013-09-06 21:51:00,
2013-09-06 14:56:00,91.3,55.6,29.85,West,270,4.3,5.1,30,0.00,,,0.00,WUHU216HW,2013-09-06 21:56:00,
2013-09-06 15:01:00,91.4,54.7,29.85,WNW,293,4.0,4.3,29,0.00,,,0.00,WUHU216HW,2013-09-06 22:01:00,
2013-09-06 15:06:00,91.4,54.7,29.85,West,270,2.9,7.2,29,0.00,,,0.00,WUHU216HW,2013-09-06 22:06:00,
2013-09-06 15:11:00,91.4,54.7,29.85,West,270,2.9,7.2,29,0.00,,,0.00,WUHU216HW,2013-09-06 22:11:00,
2013-09-06 15:16:00,91.4,54.7,29.84,WSW,248,1.1,4.9,29,0.00,,,0.00,WUHU216HW,2013-09-06 22:16:00,
2013-09-06 15:21:00,91.4,54.7,29.84,SW,225,2.9,4.7,29,0.00,,,0.00,WUHU216HW,2013-09-06 22:21:00,
2013-09-06 15:26:00,91.8,55.0,29.84,SW,225,3.4,6.3,29,0.00,,,0.00,WUHU216HW,2013-09-06 22:26:00,
2013-09-06 15:31:00,92.3,55.5,29.84,West,270,4.7,6.3,29,0.00,,,0.00,WUHU216HW,2013-09-06 22:31:00,
2013-09-06 15:36:00,92.9,55.9,29.84,WSW,248,0.7,4.7,29,0.00,,,0.00,WUHU216HW,2013-09-06 22:36:00,
2013-09-06 15:41:00,93.2,56.2,29.83,WNW,293,2.0,3.6,29,0.00,,,0.00,WUHU216HW,2013-09-06 22:41:00,
2013-09-06 15:46:00,93.2,53.9,29.83,SW,225,0.4,6.3,27,0.00,,,0.00,WUHU216HW,2013-09-06 22:46:00,
2013-09-06 15:51:00,93.2,53.9,29.83,NW,315,1.8,6.3,27,0.00,,,0.00,WUHU216HW,2013-09-06 22:51:00,
2013-09-06 15:56:00,93.1,53.8,29.83,NNE,23,2.2,5.6,27,0.00,,,0.00,WUHU216HW,2013-09-06 22:56:00,
2013-09-06 16:01:00,93.1,53.8,29.83,WNW,293,3.4,5.6,27,0.00,,,0.00,WUHU216HW,2013-09-06 23:01:00,
2013-09-06 16:06:00,93.2,53.9,29.83,NW,315,4.7,5.1,27,0.00,,,0.00,WUHU216HW,2013-09-06 23:06:00,
2013-09-06 16:11:00,93.2,52.8,29.83,WSW,248,3.1,6.3,26,0.00,,,0.00,WUHU216HW,2013-09-06 23:11:00,
2013-09-06 16:16:00,93.1,53.8,29.82,North,0,2.5,6.3,27,0.00,,,0.00,WUHU216HW,2013-09-06 23:16:00,
2013-09-06 16:22:00,93.2,52.8,29.82,WNW,293,3.6,5.4,26,0.00,,,0.00,WUHU216HW,2013-09-06 23:22:00,
2013-09-06 16:26:00,92.9,52.6,29.82,NW,315,2.2,5.4,26,0.00,,,0.00,WUHU216HW,2013-09-06 23:26:00,
2013-09-06 16:31:00,92.9,53.6,29.82,WNW,293,1.1,5.4,27,0.00,,,0.00,WUHU216HW,2013-09-06 23:31:00,
2013-09-06 16:36:00,92.5,52.3,29.82,WSW,248,4.7,8.1,26,0.00,,,0.00,WUHU216HW,2013-09-06 23:36:00,
2013-09-06 16:41:00,92.3,52.1,29.82,North,0,2.2,8.1,26,0.00,,,0.00,WUHU216HW,2013-09-06 23:41:00,
2013-09-06 16:46:00,92.2,52.0,29.82,WNW,293,7.2,7.2,26,0.00,,,0.00,WUHU216HW,2013-09-06 23:46:00,
2013-09-06 16:52:00,92.0,50.8,29.82,West,270,4.9,7.2,25,0.00,,,0.00,WUHU216HW,2013-09-06 23:52:00,
2013-09-06 16:57:00,91.8,51.7,29.82,NNE,23,1.1,6.5,26,0.00,,,0.00,WUHU216HW,2013-09-06 23:57:00,
2013-09-06 17:02:00,91.8,51.7,29.81,WNW,293,4.9,5.4,26,0.00,,,0.00,WUHU216HW,2013-09-07 00:02:00,
2013-09-06 17:07:00,91.6,51.6,29.81,NW,315,1.1,5.4,26,0.00,,,0.00,WUHU216HW,2013-09-07 00:07:00,
2013-09-06 17:12:00,91.4,51.4,29.81,West,270,2.0,3.4,26,0.00,,,0.00,WUHU216HW,2013-09-07 00:12:00,
2013-09-06 17:17:00,91.1,51.1,29.81,WNW,293,4.7,4.7,26,0.00,,,0.00,WUHU216HW,2013-09-07 00:17:00,
2013-09-06 17:21:00,91.1,53.3,29.81,SW,225,0.7,4.7,28,0.00,,,0.00,WUHU216HW,2013-09-07 00:21:00,
2013-09-06 17:26:00,90.9,52.0,29.81,NW,315,0.4,4.7,27,0.00,,,0.00,WUHU216HW,2013-09-07 00:26:00,
2013-09-06 17:31:00,90.7,51.8,29.81,NNW,338,2.5,2.5,27,0.00,,,0.00,WUHU216HW,2013-09-07 00:31:00,
2013-09-06 17:36:00,90.4,49.4,29.80,West,270,1.1,6.5,25,0.00,,,0.00,WUHU216HW,2013-09-07 00:36:00,
2013-09-06 17:41:00,90.4,51.6,29.81,NNW,338,3.6,6.5,27,0.00,,,0.00,WUHU216HW,2013-09-07 00:41:00,
2013-09-06 17:46:00,90.2,49.2,29.80,West,270,3.4,4.7,25,0.00,,,0.00,WUHU216HW,2013-09-07 00:46:00,
2013-09-06 17:51:00,89.8,49.0,29.81,WNW,293,0.4,6.9,25,0.00,,,0.00,WUHU216HW,2013-09-07 00:51:00,
2013-09-06 17:56:00,89.6,48.8,29.81,SW,225,3.4,6.9,25,0.00,,,0.00,WUHU216HW,2013-09-07 00:56:00,
2013-09-06 18:01:00,89.3,49.6,29.81,WNW,293,1.6,3.4,26,0.00,,,0.00,WUHU216HW,2013-09-07 01:01:00,
2013-09-06 18:06:00,89.1,48.3,29.80,WSW,248,4.9,6.5,25,0.00,,,0.00,WUHU216HW,2013-09-07 01:06:00,
2013-09-06 18:12:00,88.9,49.2,29.80,NNE,23,0.7,6.5,26,0.00,,,0.00,WUHU216HW,2013-09-07 01:12:00,
2013-09-06 18:17:00,88.7,48.0,29.80,North,0,0.2,3.8,25,0.00,,,0.00,WUHU216HW,2013-09-07 01:17:00,
2013-09-06 18:21:00,88.4,48.8,29.80,North,0,1.1,1.8,26,0.00,,,0.00,WUHU216HW,2013-09-07 01:21:00,
2013-09-06 18:26:00,88.0,48.5,29.80,West,270,1.1,1.8,26,0.00,,,0.00,WUHU216HW,2013-09-07 01:26:00,
2013-09-06 18:31:00,87.7,48.2,29.80,NNE,23,0.4,2.7,26,0.00,,,0.00,WUHU216HW,2013-09-07 01:31:00,
2013-09-06 18:37:00,87.5,47.0,29.80,North,0,0.0,2.7,25,0.00,,,0.00,WUHU216HW,2013-09-07 01:37:00,
2013-09-06 18:42:00,87.1,48.8,29.80,West,270,0.0,1.8,27,0.00,,,0.00,WUHU216HW,2013-09-07 01:42:00,
2013-09-06 18:47:00,86.8,49.6,29.80,North,0,1.1,1.3,28,0.00,,,0.00,WUHU216HW,2013-09-07 01:47:00,
2013-09-06 18:52:00,86.2,49.2,29.80,North,0,0.2,1.3,28,0.00,,,0.00,WUHU216HW,2013-09-07 01:52:00,
2013-09-06 18:57:00,85.9,49.9,29.80,NE,45,0.0,1.3,29,0.00,,,0.00,WUHU216HW,2013-09-07 01:57:00,
2013-09-06 19:01:00,85.5,49.6,29.80,NNE,23,0.9,1.3,29,0.00,,,0.00,WUHU216HW,2013-09-07 02:01:00,
2013-09-06 19:06:00,85.0,50.1,29.80,NNW,338,0.0,1.3,30,0.00,,,0.00,WUHU216HW,2013-09-07 02:06:00,
2013-09-06 19:11:00,84.4,49.7,29.80,NNW,338,0.0,1.3,30,0.00,,,0.00,WUHU216HW,2013-09-07 02:11:00,
2013-09-06 19:17:00,84.1,50.1,29.80,NNW,338,0.0,0.0,31,0.00,,,0.00,WUHU216HW,2013-09-07 02:17:00,
2013-09-06 19:21:00,83.5,49.7,29.80,NNW,338,0.0,0.0,31,0.00,,,0.00,WUHU216HW,2013-09-07 02:21:00,
2013-09-06 19:26:00,83.0,50.0,29.80,North,0,0.2,0.4,32,0.00,,,0.00,WUHU216HW,2013-09-07 02:26:00,
2013-09-06 19:31:00,82.4,50.2,29.80,North,0,0.4,0.9,33,0.00,,,0.00,WUHU216HW,2013-09-07 02:31:00,
2013-09-06 19:36:00,81.9,51.4,29.80,North,0,0.4,0.9,35,0.00,,,0.00,WUHU216HW,2013-09-07 02:36:00,
2013-09-06 19:41:00,81.4,51.0,29.80,NE,45,0.4,1.1,35,0.00,,,0.00,WUHU216HW,2013-09-07 02:41:00,
2013-09-06 19:46:00,80.8,52.0,29.80,ENE,68,0.2,1.1,37,0.00,,,0.00,WUHU216HW,2013-09-07 02:46:00,
2013-09-06 19:51:00,80.3,52.3,29.81,ENE,68,0.0,0.9,38,0.00,,,0.00,WUHU216HW,2013-09-07 02:51:00,
2013-09-06 19:56:00,79.6,51.7,29.81,NW,315,0.0,0.2,38,0.00,,,0.00,WUHU216HW,2013-09-07 02:56:00,
2013-09-06 20:01:00,79.2,52.1,29.81,North,0,0.4,0.4,39,0.00,,,0.00,WUHU216HW,2013-09-07 03:01:00,
2013-09-06 20:06:00,78.5,52.2,29.81,NE,45,0.7,0.7,40,0.00,,,0.00,WUHU216HW,2013-09-07 03:06:00,
2013-09-06 20:11:00,78.1,51.9,29.82,NNE,23,0.0,1.1,40,0.00,,,0.00,WUHU216HW,2013-09-07 03:11:00,
2013-09-06 20:16:00,77.6,52.0,29.82,NNE,23,0.0,1.1,41,0.00,,,0.00,WUHU216HW,2013-09-07 03:16:00,
2013-09-06 20:21:00,77.0,52.2,29.82,NNE,23,0.4,1.1,42,0.00,,,0.00,WUHU216HW,2013-09-07 03:21:00,
2013-09-06 20:26:00,76.7,51.8,29.82,NE,45,0.4,1.1,42,0.00,,,0.00,WUHU216HW,2013-09-07 03:26:00,
2013-09-06 20:31:00,76.1,51.9,29.82,NE,45,0.0,1.1,43,0.00,,,0.00,WUHU216HW,2013-09-07 03:31:00,
2013-09-06 20:36:00,75.8,52.3,29.82,NE,45,0.0,1.1,44,0.00,,,0.00,WUHU216HW,2013-09-07 03:36:00,
2013-09-06 20:41:00,75.4,51.9,29.83,NW,315,0.0,0.4,44,0.00,,,0.00,WUHU216HW,2013-09-07 03:41:00,
2013-09-06 20:46:00,75.1,52.2,29.83,NW,315,0.2,1.3,45,0.00,,,0.00,WUHU216HW,2013-09-07 03:46:00,
2013-09-06 20:51:00,74.7,51.8,29.83,NNW,338,0.0,1.3,45,0.00,,,0.00,WUHU216HW,2013-09-07 03:51:00,
2013-09-06 20:56:00,74.5,51.7,29.83,NNW,338,0.0,0.0,45,0.00,,,0.00,WUHU216HW,2013-09-07 03:56:00,
2013-09-06 21:01:00,74.3,51.6,29.83,WNW,293,0.0,0.4,45,0.00,,,0.00,WUHU216HW,2013-09-07 04:01:00,
2013-09-06 21:02:00,74.2,51.4,29.83,WNW,293,0.0,0.4,45,0.00,,,0.00,WUHU216HW,2013-09-07 04:02:00,
2013-09-06 21:07:00,73.8,51.6,29.83,NNE,23,0.4,0.4,46,0.00,,,0.00,WUHU216HW,2013-09-07 04:07:00,
2013-09-06 21:12:00,73.4,51.3,29.83,ENE,68,0.0,0.7,46,0.00,,,0.00,WUHU216HW,2013-09-07 04:12:00,
2013-09-06 21:17:00,73.1,51.6,29.83,ENE,68,0.0,0.7,47,0.00,,,0.00,WUHU216HW,2013-09-07 04:17:00,
2013-09-06 21:22:00,72.7,51.2,29.83,NE,45,0.7,0.7,47,0.00,,,0.00,WUHU216HW,2013-09-07 04:22:00,
2013-09-06 21:27:00,72.4,51.5,29.83,NE,45,0.0,0.7,48,0.00,,,0.00,WUHU216HW,2013-09-07 04:27:00,
2013-09-06 21:32:00,72.2,51.3,29.83,NE,45,0.4,0.7,48,0.00,,,0.00,WUHU216HW,2013-09-07 04:32:00,
2013-09-06 21:37:00,71.6,51.4,29.83,NE,45,0.7,0.9,49,0.00,,,0.00,WUHU216HW,2013-09-07 04:37:00,
2013-09-06 21:42:00,71.5,51.3,29.83,North,0,0.7,0.9,49,0.00,,,0.00,WUHU216HW,2013-09-07 04:42:00,
2013-09-06 21:47:00,71.1,51.6,29.84,North,0,0.4,0.7,50,0.00,,,0.00,WUHU216HW,2013-09-07 04:47:00,
2013-09-06 21:52:00,70.9,51.4,29.83,North,0,0.0,0.7,50,0.00,,,0.00,WUHU216HW,2013-09-07 04:52:00,
2013-09-06 21:57:00,70.6,51.6,29.84,North,0,0.7,0.7,51,0.00,,,0.00,WUHU216HW,2013-09-07 04:57:00,
2013-09-06 22:02:00,70.4,51.4,29.84,North,0,0.2,0.7,51,0.00,,,0.00,WUHU216HW,2013-09-07 05:02:00,
2013-09-06 22:07:00,70.2,51.8,29.83,North,0,0.0,0.4,52,0.00,,,0.00,WUHU216HW,2013-09-07 05:07:00,
2013-09-06 22:12:00,69.8,51.0,29.83,North,0,0.4,0.4,51,0.00,,,0.00,WUHU216HW,2013-09-07 05:12:00,
2013-09-06 22:17:00,69.7,50.8,29.83,North,0,0.4,0.4,51,0.00,,,0.00,WUHU216HW,2013-09-07 05:17:00,
2013-09-06 22:22:00,69.5,51.1,29.83,NNE,23,0.0,0.4,52,0.00,,,0.00,WUHU216HW,2013-09-07 05:22:00,
2013-09-06 22:27:00,69.1,51.2,29.83,NNE,23,0.0,0.4,53,0.00,,,0.00,WUHU216HW,2013-09-07 05:27:00,
2013-09-06 22:32:00,68.8,51.0,29.84,NNE,23,0.0,0.4,53,0.00,,,0.00,WUHU216HW,2013-09-07 05:32:00,
2013-09-06 22:37:00,68.4,51.0,29.83,NNE,23,0.0,0.7,54,0.00,,,0.00,WUHU216HW,2013-09-07 05:37:00,
2013-09-06 22:42:00,68.2,50.9,29.83,NNE,23,0.0,0.7,54,0.00,,,0.00,WUHU216HW,2013-09-07 05:42:00,
2013-09-06 22:47:00,68.0,51.2,29.83,NNE,23,0.0,0.4,55,0.00,,,0.00,WUHU216HW,2013-09-07 05:47:00,
2013-09-06 22:52:00,67.7,50.9,29.83,NNE,23,0.4,0.4,55,0.00,,,0.00,WUHU216HW,2013-09-07 05:52:00,
2013-09-06 22:57:00,67.5,51.2,29.83,NNE,23,0.0,0.4,56,0.00,,,0.00,WUHU216HW,2013-09-07 05:57:00,
2013-09-06 23:02:00,67.3,51.6,29.83,NNE,23,0.4,0.4,57,0.00,,,0.00,WUHU216HW,2013-09-07 06:02:00,
2013-09-06 23:07:00,67.1,51.8,29.83,NNE,23,0.7,0.7,58,0.00,,,0.00,WUHU216HW,2013-09-07 06:07:00,
2013-09-06 23:12:00,67.0,51.7,29.83,NE,45,0.7,1.1,58,0.00,,,0.00,WUHU216HW,2013-09-07 06:12:00,
2013-09-06 23:17:00,66.6,51.4,29.83,NNE,23,0.2,1.1,58,0.00,,,0.00,WUHU216HW,2013-09-07 06:17:00,
2013-09-06 23:22:00,66.4,51.2,29.83,NE,45,0.4,0.4,58,0.00,,,0.00,WUHU216HW,2013-09-07 06:22:00,
2013-09-06 23:27:00,66.2,51.0,29.83,NE,45,0.0,0.7,58,0.00,,,0.00,WUHU216HW,2013-09-07 06:27:00,
2013-09-06 23:32:00,66.1,51.4,29.82,NE,45,0.0,0.7,59,0.00,,,0.00,WUHU216HW,2013-09-07 06:32:00,
2013-09-06 23:37:00,65.9,51.2,29.83,NE,45,0.0,0.4,59,0.00,,,0.00,WUHU216HW,2013-09-07 06:37:00,
2013-09-06 23:42:00,65.5,50.9,29.83,ENE,68,0.9,0.9,59,0.00,,,0.00,WUHU216HW,2013-09-07 06:42:00,
2013-09-06 23:47:00,65.2,50.5,29.83,ENE,68,0.0,0.9,59,0.00,,,0.00,WUHU216HW,2013-09-07 06:47:00,
2013-09-06 23:52:00,65.0,50.3,29.83,ENE,68,0.0,0.0,59,0.00,,,0.00,WUHU216HW,2013-09-07 06:52:00,
2013-09-06 23:57:00,64.6,50.4,29.82,ENE,68,0.4,0.4,60,0.00,,,0.00,WUHU216HW,2013-09-07 06:57:00,